sensor_id;sensor_type;location;lat;lon;timestamp;temperature;humidity
51007;DHT22;37034;47.886;-3.904;2023-08-06T00:01:42;18.50;92.30
51007;DHT22;37034;47.886;-3.904;2023-08-06T00:04:08;18.50;92.20
51007;DHT22;37034;47.886;-3.904;2023-08-06T00:06:33;18.50;92.20
51007;DHT22;37034;47.886;-3.904;2023-08-06T00:08:59;18.60;92.20
51007;DHT22;37034;47.886;-3.904;2023-08-06T00:11:25;18.60;92.20
51007;DHT22;37034;47.886;-3.904;2023-08-06T00:13:50;18.60;92.10
51007;DHT22;37034;47.886;-3.904;2023-08-06T00:16:16;18.60;92.20
51007;DHT22;37034;47.886;-3.904;2023-08-06T00:18:42;18.60;92.20
51007;DHT22;37034;47.886;-3.904;2023-08-06T00:21:07;18.50;92.10
51007;DHT22;37034;47.886;-3.904;2023-08-06T00:23:33;18.50;92.10
51007;DHT22;37034;47.886;-3.904;2023-08-06T00:25:59;18.40;92.20
51007;DHT22;37034;47.886;-3.904;2023-08-06T00:28:24;18.40;92.40
51007;DHT22;37034;47.886;-3.904;2023-08-06T00:30:54;18.30;92.60
51007;DHT22;37034;47.886;-3.904;2023-08-06T00:33:23;18.00;93.10
51007;DHT22;37034;47.886;-3.904;2023-08-06T00:35:49;18.10;93.10
51007;DHT22;37034;47.886;-3.904;2023-08-06T00:38:15;18.10;93.10
51007;DHT22;37034;47.886;-3.904;2023-08-06T00:40:41;18.10;93.00
51007;DHT22;37034;47.886;-3.904;2023-08-06T00:43:06;18.10;93.00
51007;DHT22;37034;47.886;-3.904;2023-08-06T00:45:34;18.10;93.00
51007;DHT22;37034;47.886;-3.904;2023-08-06T00:48:01;18.10;93.20
51007;DHT22;37034;47.886;-3.904;2023-08-06T00:50:27;18.00;93.10
51007;DHT22;37034;47.886;-3.904;2023-08-06T00:52:53;18.00;93.60
51007;DHT22;37034;47.886;-3.904;2023-08-06T00:55:19;17.90;93.40
51007;DHT22;37034;47.886;-3.904;2023-08-06T00:57:45;17.80;93.80
51007;DHT22;37034;47.886;-3.904;2023-08-06T01:00:11;17.80;93.70
51007;DHT22;37034;47.886;-3.904;2023-08-06T01:02:37;17.90;93.70
51007;DHT22;37034;47.886;-3.904;2023-08-06T01:05:03;17.80;93.60
51007;DHT22;37034;47.886;-3.904;2023-08-06T01:08:06;17.80;93.60
51007;DHT22;37034;47.886;-3.904;2023-08-06T01:13:37;17.80;93.80
51007;DHT22;37034;47.886;-3.904;2023-08-06T01:16:07;17.80;93.80
51007;DHT22;37034;47.886;-3.904;2023-08-06T01:18:34;17.80;93.70
51007;DHT22;37034;47.886;-3.904;2023-08-06T01:21:00;17.90;93.70
51007;DHT22;37034;47.886;-3.904;2023-08-06T01:23:26;17.80;93.80
51007;DHT22;37034;47.886;-3.904;2023-08-06T01:26:32;17.60;94.00
51007;DHT22;37034;47.886;-3.904;2023-08-06T01:29:17;17.50;94.30
51007;DHT22;37034;47.886;-3.904;2023-08-06T01:31:48;17.50;94.40
51007;DHT22;37034;47.886;-3.904;2023-08-06T01:34:23;17.50;94.50
51007;DHT22;37034;47.886;-3.904;2023-08-06T01:36:52;17.50;94.40
51007;DHT22;37034;47.886;-3.904;2023-08-06T01:39:18;17.50;94.30
51007;DHT22;37034;47.886;-3.904;2023-08-06T01:41:48;17.60;94.20
51007;DHT22;37034;47.886;-3.904;2023-08-06T01:44:15;17.70;94.10
51007;DHT22;37034;47.886;-3.904;2023-08-06T01:46:41;17.70;94.10
51007;DHT22;37034;47.886;-3.904;2023-08-06T01:49:06;17.80;93.90
51007;DHT22;37034;47.886;-3.904;2023-08-06T01:51:32;17.90;93.90
51007;DHT22;37034;47.886;-3.904;2023-08-06T01:53:58;17.90;93.90
51007;DHT22;37034;47.886;-3.904;2023-08-06T01:56:23;17.90;93.80
51007;DHT22;37034;47.886;-3.904;2023-08-06T01:58:49;17.90;94.00
51007;DHT22;37034;47.886;-3.904;2023-08-06T02:01:15;17.80;94.10
51007;DHT22;37034;47.886;-3.904;2023-08-06T02:03:40;17.80;94.00
51007;DHT22;37034;47.886;-3.904;2023-08-06T02:06:06;17.90;94.20
51007;DHT22;37034;47.886;-3.904;2023-08-06T02:08:31;17.90;94.10
51007;DHT22;37034;47.886;-3.904;2023-08-06T02:10:57;17.90;94.10
51007;DHT22;37034;47.886;-3.904;2023-08-06T02:13:23;18.00;94.10
51007;DHT22;37034;47.886;-3.904;2023-08-06T02:15:49;18.00;94.10
51007;DHT22;37034;47.886;-3.904;2023-08-06T02:18:15;18.10;94.20
51007;DHT22;37034;47.886;-3.904;2023-08-06T02:20:42;18.10;94.10
51007;DHT22;37034;47.886;-3.904;2023-08-06T02:23:07;18.10;94.10
51007;DHT22;37034;47.886;-3.904;2023-08-06T02:25:33;18.10;94.10
51007;DHT22;37034;47.886;-3.904;2023-08-06T02:27:59;18.10;94.10
51007;DHT22;37034;47.886;-3.904;2023-08-06T02:30:24;18.20;94.00
51007;DHT22;37034;47.886;-3.904;2023-08-06T02:32:50;18.20;94.00
51007;DHT22;37034;47.886;-3.904;2023-08-06T02:35:16;18.20;94.00
51007;DHT22;37034;47.886;-3.904;2023-08-06T02:37:41;18.10;94.00
51007;DHT22;37034;47.886;-3.904;2023-08-06T02:40:07;18.10;94.00
51007;DHT22;37034;47.886;-3.904;2023-08-06T02:42:33;18.10;94.10
51007;DHT22;37034;47.886;-3.904;2023-08-06T02:44:59;18.20;94.10
51007;DHT22;37034;47.886;-3.904;2023-08-06T02:47:24;18.10;94.10
51007;DHT22;37034;47.886;-3.904;2023-08-06T02:49:50;18.20;94.20
51007;DHT22;37034;47.886;-3.904;2023-08-06T02:52:16;18.10;94.30
51007;DHT22;37034;47.886;-3.904;2023-08-06T02:54:42;18.00;94.30
51007;DHT22;37034;47.886;-3.904;2023-08-06T02:57:08;18.00;94.40
51007;DHT22;37034;47.886;-3.904;2023-08-06T02:59:33;18.00;94.40
51007;DHT22;37034;47.886;-3.904;2023-08-06T03:01:59;18.00;94.50
51007;DHT22;37034;47.886;-3.904;2023-08-06T03:04:25;18.00;94.40
51007;DHT22;37034;47.886;-3.904;2023-08-06T03:06:50;18.10;94.40
51007;DHT22;37034;47.886;-3.904;2023-08-06T03:09:17;18.10;94.30
51007;DHT22;37034;47.886;-3.904;2023-08-06T03:11:43;18.00;94.30
51007;DHT22;37034;47.886;-3.904;2023-08-06T03:14:09;18.00;94.50
51007;DHT22;37034;47.886;-3.904;2023-08-06T03:16:35;18.00;94.60
51007;DHT22;37034;47.886;-3.904;2023-08-06T03:19:00;18.00;94.50
51007;DHT22;37034;47.886;-3.904;2023-08-06T03:21:26;18.10;94.40
51007;DHT22;37034;47.886;-3.904;2023-08-06T03:23:52;18.10;94.50
51007;DHT22;37034;47.886;-3.904;2023-08-06T03:26:18;18.10;94.40
51007;DHT22;37034;47.886;-3.904;2023-08-06T03:28:43;18.20;94.40
51007;DHT22;37034;47.886;-3.904;2023-08-06T03:31:09;18.20;94.40
51007;DHT22;37034;47.886;-3.904;2023-08-06T03:33:35;18.20;94.40
51007;DHT22;37034;47.886;-3.904;2023-08-06T03:36:00;18.10;94.40
51007;DHT22;37034;47.886;-3.904;2023-08-06T03:38:26;18.00;94.50
51007;DHT22;37034;47.886;-3.904;2023-08-06T03:40:53;18.10;94.50
51007;DHT22;37034;47.886;-3.904;2023-08-06T03:43:18;18.10;94.60
51007;DHT22;37034;47.886;-3.904;2023-08-06T03:45:44;18.10;94.60
51007;DHT22;37034;47.886;-3.904;2023-08-06T03:48:10;18.10;94.50
51007;DHT22;37034;47.886;-3.904;2023-08-06T03:50:35;18.10;94.50
51007;DHT22;37034;47.886;-3.904;2023-08-06T03:53:01;18.20;94.50
51007;DHT22;37034;47.886;-3.904;2023-08-06T03:55:27;18.20;94.50
51007;DHT22;37034;47.886;-3.904;2023-08-06T03:57:53;18.20;94.50
51007;DHT22;37034;47.886;-3.904;2023-08-06T04:00:18;18.20;94.40
51007;DHT22;37034;47.886;-3.904;2023-08-06T04:02:44;18.10;94.50
51007;DHT22;37034;47.886;-3.904;2023-08-06T04:05:10;18.20;94.50
51007;DHT22;37034;47.886;-3.904;2023-08-06T04:07:35;18.10;94.50
51007;DHT22;37034;47.886;-3.904;2023-08-06T04:10:03;18.10;94.50
51007;DHT22;37034;47.886;-3.904;2023-08-06T04:12:29;18.10;94.50
51007;DHT22;37034;47.886;-3.904;2023-08-06T04:14:57;18.10;94.60
51007;DHT22;37034;47.886;-3.904;2023-08-06T04:17:22;18.10;94.60
51007;DHT22;37034;47.886;-3.904;2023-08-06T04:19:53;18.10;94.60
51007;DHT22;37034;47.886;-3.904;2023-08-06T04:22:19;18.10;94.70
51007;DHT22;37034;47.886;-3.904;2023-08-06T04:24:45;18.20;94.70
51007;DHT22;37034;47.886;-3.904;2023-08-06T04:27:11;18.10;94.80
51007;DHT22;37034;47.886;-3.904;2023-08-06T04:29:37;18.10;94.60
51007;DHT22;37034;47.886;-3.904;2023-08-06T04:32:08;18.10;94.60
51007;DHT22;37034;47.886;-3.904;2023-08-06T04:34:35;18.10;94.60
51007;DHT22;37034;47.886;-3.904;2023-08-06T04:37:00;18.10;94.60
51007;DHT22;37034;47.886;-3.904;2023-08-06T04:39:26;18.20;94.60
51007;DHT22;37034;47.886;-3.904;2023-08-06T04:41:52;18.20;94.40
51007;DHT22;37034;47.886;-3.904;2023-08-06T04:44:18;18.20;94.50
51007;DHT22;37034;47.886;-3.904;2023-08-06T04:46:43;18.10;94.50
51007;DHT22;37034;47.886;-3.904;2023-08-06T04:49:09;18.10;94.60
51007;DHT22;37034;47.886;-3.904;2023-08-06T04:51:35;18.10;94.70
51007;DHT22;37034;47.886;-3.904;2023-08-06T04:54:00;18.10;94.80
51007;DHT22;37034;47.886;-3.904;2023-08-06T04:56:26;18.10;94.80
51007;DHT22;37034;47.886;-3.904;2023-08-06T04:58:52;18.10;94.70
51007;DHT22;37034;47.886;-3.904;2023-08-06T05:01:18;18.10;94.80
51007;DHT22;37034;47.886;-3.904;2023-08-06T05:03:44;18.10;94.80
51007;DHT22;37034;47.886;-3.904;2023-08-06T05:06:09;18.10;94.80
51007;DHT22;37034;47.886;-3.904;2023-08-06T05:08:36;18.10;94.80
51007;DHT22;37034;47.886;-3.904;2023-08-06T05:11:01;18.20;94.80
51007;DHT22;37034;47.886;-3.904;2023-08-06T05:13:27;18.20;94.80
51007;DHT22;37034;47.886;-3.904;2023-08-06T05:15:56;18.20;95.00
51007;DHT22;37034;47.886;-3.904;2023-08-06T05:18:21;18.30;94.80
51007;DHT22;37034;47.886;-3.904;2023-08-06T05:20:47;18.30;94.80
51007;DHT22;37034;47.886;-3.904;2023-08-06T05:23:13;18.30;94.70
51007;DHT22;37034;47.886;-3.904;2023-08-06T05:25:39;18.40;94.70
51007;DHT22;37034;47.886;-3.904;2023-08-06T05:28:05;18.40;95.00
51007;DHT22;37034;47.886;-3.904;2023-08-06T05:30:31;18.40;94.70
51007;DHT22;37034;47.886;-3.904;2023-08-06T05:32:56;18.50;94.70
51007;DHT22;37034;47.886;-3.904;2023-08-06T05:35:22;18.50;94.70
51007;DHT22;37034;47.886;-3.904;2023-08-06T05:37:49;18.50;94.70
51007;DHT22;37034;47.886;-3.904;2023-08-06T05:40:15;18.50;94.60
51007;DHT22;37034;47.886;-3.904;2023-08-06T05:42:41;18.60;94.60
51007;DHT22;37034;47.886;-3.904;2023-08-06T05:45:07;18.50;94.50
51007;DHT22;37034;47.886;-3.904;2023-08-06T05:47:33;18.50;94.50
51007;DHT22;37034;47.886;-3.904;2023-08-06T05:49:59;18.50;94.60
51007;DHT22;37034;47.886;-3.904;2023-08-06T05:52:24;18.40;94.40
51007;DHT22;37034;47.886;-3.904;2023-08-06T05:54:50;18.40;94.40
51007;DHT22;37034;47.886;-3.904;2023-08-06T05:57:17;18.50;94.50
51007;DHT22;37034;47.886;-3.904;2023-08-06T05:59:42;18.40;94.40
51007;DHT22;37034;47.886;-3.904;2023-08-06T06:02:08;18.40;94.50
51007;DHT22;37034;47.886;-3.904;2023-08-06T06:04:34;18.50;94.50
51007;DHT22;37034;47.886;-3.904;2023-08-06T06:07:00;18.50;94.50
51007;DHT22;37034;47.886;-3.904;2023-08-06T06:09:25;18.60;94.50
51007;DHT22;37034;47.886;-3.904;2023-08-06T06:11:51;18.60;94.50
51007;DHT22;37034;47.886;-3.904;2023-08-06T06:14:18;18.60;94.50
51007;DHT22;37034;47.886;-3.904;2023-08-06T06:16:44;18.70;94.50
51007;DHT22;37034;47.886;-3.904;2023-08-06T06:19:10;18.70;94.60
51007;DHT22;37034;47.886;-3.904;2023-08-06T06:21:35;18.70;94.60
51007;DHT22;37034;47.886;-3.904;2023-08-06T06:24:01;18.80;94.50
51007;DHT22;37034;47.886;-3.904;2023-08-06T06:26:28;18.90;94.60
51007;DHT22;37034;47.886;-3.904;2023-08-06T06:28:53;18.90;94.50
51007;DHT22;37034;47.886;-3.904;2023-08-06T06:31:19;18.90;94.50
51007;DHT22;37034;47.886;-3.904;2023-08-06T06:33:45;19.00;94.50
51007;DHT22;37034;47.886;-3.904;2023-08-06T06:36:10;19.00;94.50
51007;DHT22;37034;47.886;-3.904;2023-08-06T06:38:37;19.10;94.50
51007;DHT22;37034;47.886;-3.904;2023-08-06T06:41:02;19.10;94.60
51007;DHT22;37034;47.886;-3.904;2023-08-06T06:43:28;19.20;94.40
51007;DHT22;37034;47.886;-3.904;2023-08-06T06:46:00;19.20;94.50
51007;DHT22;37034;47.886;-3.904;2023-08-06T06:48:31;19.30;94.40
51007;DHT22;37034;47.886;-3.904;2023-08-06T06:50:57;19.30;94.30
51007;DHT22;37034;47.886;-3.904;2023-08-06T06:53:23;19.20;94.40
51007;DHT22;37034;47.886;-3.904;2023-08-06T06:55:53;19.30;94.30
51007;DHT22;37034;47.886;-3.904;2023-08-06T06:58:19;19.30;94.40
51007;DHT22;37034;47.886;-3.904;2023-08-06T07:00:46;19.40;94.40
51007;DHT22;37034;47.886;-3.904;2023-08-06T07:03:11;19.40;94.30
51007;DHT22;37034;47.886;-3.904;2023-08-06T07:05:37;19.40;94.40
51007;DHT22;37034;47.886;-3.904;2023-08-06T07:08:03;19.40;94.20
51007;DHT22;37034;47.886;-3.904;2023-08-06T07:10:28;19.40;94.40
51007;DHT22;37034;47.886;-3.904;2023-08-06T07:12:54;19.40;94.30
51007;DHT22;37034;47.886;-3.904;2023-08-06T07:15:20;19.50;94.40
51007;DHT22;37034;47.886;-3.904;2023-08-06T07:17:45;19.50;94.30
51007;DHT22;37034;47.886;-3.904;2023-08-06T07:20:11;19.40;94.10
51007;DHT22;37034;47.886;-3.904;2023-08-06T07:22:37;19.30;94.30
51007;DHT22;37034;47.886;-3.904;2023-08-06T07:25:03;19.40;94.40
51007;DHT22;37034;47.886;-3.904;2023-08-06T07:27:28;19.50;94.40
51007;DHT22;37034;47.886;-3.904;2023-08-06T07:29:54;19.50;94.30
51007;DHT22;37034;47.886;-3.904;2023-08-06T07:32:19;19.60;94.30
51007;DHT22;37034;47.886;-3.904;2023-08-06T07:34:45;19.60;94.00
51007;DHT22;37034;47.886;-3.904;2023-08-06T07:37:11;19.50;93.80
51007;DHT22;37034;47.886;-3.904;2023-08-06T07:39:38;19.60;94.10
51007;DHT22;37034;47.886;-3.904;2023-08-06T07:42:05;19.70;94.40
51007;DHT22;37034;47.886;-3.904;2023-08-06T07:44:32;19.90;94.30
51007;DHT22;37034;47.886;-3.904;2023-08-06T07:46:58;20.00;94.10
51007;DHT22;37034;47.886;-3.904;2023-08-06T07:49:23;20.00;93.50
51007;DHT22;37034;47.886;-3.904;2023-08-06T07:51:49;20.10;93.50
51007;DHT22;37034;47.886;-3.904;2023-08-06T07:54:14;20.10;93.40
51007;DHT22;37034;47.886;-3.904;2023-08-06T07:56:40;20.00;93.10
51007;DHT22;37034;47.886;-3.904;2023-08-06T07:59:06;19.90;93.60
51007;DHT22;37034;47.886;-3.904;2023-08-06T08:01:31;20.00;93.50
51007;DHT22;37034;47.886;-3.904;2023-08-06T08:03:57;20.20;93.80
51007;DHT22;37034;47.886;-3.904;2023-08-06T08:06:23;20.30;93.30
51007;DHT22;37034;47.886;-3.904;2023-08-06T08:08:48;20.40;93.30
51007;DHT22;37034;47.886;-3.904;2023-08-06T08:11:14;20.40;92.40
51007;DHT22;37034;47.886;-3.904;2023-08-06T08:13:41;20.30;92.70
51007;DHT22;37034;47.886;-3.904;2023-08-06T08:16:07;20.20;92.60
51007;DHT22;37034;47.886;-3.904;2023-08-06T08:18:33;20.20;92.50
51007;DHT22;37034;47.886;-3.904;2023-08-06T08:20:58;20.10;92.50
51007;DHT22;37034;47.886;-3.904;2023-08-06T08:23:24;20.10;92.60
51007;DHT22;37034;47.886;-3.904;2023-08-06T08:25:50;20.10;93.10
51007;DHT22;37034;47.886;-3.904;2023-08-06T08:28:15;20.20;92.60
51007;DHT22;37034;47.886;-3.904;2023-08-06T08:30:42;20.30;92.50
51007;DHT22;37034;47.886;-3.904;2023-08-06T08:33:07;20.30;93.10
51007;DHT22;37034;47.886;-3.904;2023-08-06T08:35:34;20.70;93.20
51007;DHT22;37034;47.886;-3.904;2023-08-06T08:37:59;21.00;92.90
51007;DHT22;37034;47.886;-3.904;2023-08-06T08:40:31;21.30;92.40
51007;DHT22;37034;47.886;-3.904;2023-08-06T08:42:58;21.40;92.00
51007;DHT22;37034;47.886;-3.904;2023-08-06T08:45:26;21.60;92.20
51007;DHT22;37034;47.886;-3.904;2023-08-06T08:47:54;21.50;91.80
51007;DHT22;37034;47.886;-3.904;2023-08-06T08:50:21;21.50;91.70
51007;DHT22;37034;47.886;-3.904;2023-08-06T08:52:47;21.40;91.40
51007;DHT22;37034;47.886;-3.904;2023-08-06T08:55:15;21.10;91.30
51007;DHT22;37034;47.886;-3.904;2023-08-06T08:57:41;21.00;91.50
51007;DHT22;37034;47.886;-3.904;2023-08-06T09:00:07;20.90;91.40
51007;DHT22;37034;47.886;-3.904;2023-08-06T09:02:33;20.90;91.20
51007;DHT22;37034;47.886;-3.904;2023-08-06T09:05:03;20.80;91.30
51007;DHT22;37034;47.886;-3.904;2023-08-06T09:07:34;20.70;91.50
51007;DHT22;37034;47.886;-3.904;2023-08-06T09:10:02;20.80;91.50
51007;DHT22;37034;47.886;-3.904;2023-08-06T09:12:31;21.00;91.80
51007;DHT22;37034;47.886;-3.904;2023-08-06T09:14:57;21.20;91.30
51007;DHT22;37034;47.886;-3.904;2023-08-06T09:17:23;21.20;90.30
51007;DHT22;37034;47.886;-3.904;2023-08-06T09:19:49;21.20;91.00
51007;DHT22;37034;47.886;-3.904;2023-08-06T09:22:15;21.30;90.80
51007;DHT22;37034;47.886;-3.904;2023-08-06T09:24:41;21.40;90.70
51007;DHT22;37034;47.886;-3.904;2023-08-06T09:27:14;21.30;90.50
51007;DHT22;37034;47.886;-3.904;2023-08-06T09:29:42;21.30;89.90
51007;DHT22;37034;47.886;-3.904;2023-08-06T09:32:08;21.40;89.70
51007;DHT22;37034;47.886;-3.904;2023-08-06T09:34:34;21.50;90.80
51007;DHT22;37034;47.886;-3.904;2023-08-06T09:37:00;21.70;90.60
51007;DHT22;37034;47.886;-3.904;2023-08-06T09:39:29;21.90;90.10
51007;DHT22;37034;47.886;-3.904;2023-08-06T09:41:57;21.90;89.60
51007;DHT22;37034;47.886;-3.904;2023-08-06T09:44:24;21.90;87.90
51007;DHT22;37034;47.886;-3.904;2023-08-06T09:46:57;21.70;88.50
51007;DHT22;37034;47.886;-3.904;2023-08-06T09:49:48;21.30;87.00
51007;DHT22;37034;47.886;-3.904;2023-08-06T09:52:13;21.40;89.20
51007;DHT22;37034;47.886;-3.904;2023-08-06T09:54:43;21.70;90.40
51007;DHT22;37034;47.886;-3.904;2023-08-06T09:57:09;22.10;90.40
51007;DHT22;37034;47.886;-3.904;2023-08-06T09:59:38;22.40;89.40
51007;DHT22;37034;47.886;-3.904;2023-08-06T10:02:14;22.50;87.20
51007;DHT22;37034;47.886;-3.904;2023-08-06T10:04:40;22.10;88.30
51007;DHT22;37034;47.886;-3.904;2023-08-06T10:07:06;21.80;88.20
51007;DHT22;37034;47.886;-3.904;2023-08-06T10:09:32;21.70;89.70
51007;DHT22;37034;47.886;-3.904;2023-08-06T10:11:58;21.60;89.00
51007;DHT22;37034;47.886;-3.904;2023-08-06T10:14:28;21.70;90.10
51007;DHT22;37034;47.886;-3.904;2023-08-06T10:16:57;21.80;89.50
51007;DHT22;37034;47.886;-3.904;2023-08-06T10:19:24;21.70;89.80
51007;DHT22;37034;47.886;-3.904;2023-08-06T10:22:10;21.90;90.10
51007;DHT22;37034;47.886;-3.904;2023-08-06T10:24:51;22.00;90.50
51007;DHT22;37034;47.886;-3.904;2023-08-06T10:29:47;22.20;88.70
51007;DHT22;37034;47.886;-3.904;2023-08-06T10:32:13;22.20;88.40
51007;DHT22;37034;47.886;-3.904;2023-08-06T10:34:58;22.20;89.30
51007;DHT22;37034;47.886;-3.904;2023-08-06T10:37:34;22.40;88.80
51007;DHT22;37034;47.886;-3.904;2023-08-06T10:40:00;22.60;87.90
51007;DHT22;37034;47.886;-3.904;2023-08-06T10:42:30;22.90;89.00
51007;DHT22;37034;47.886;-3.904;2023-08-06T10:45:15;22.80;87.10
51007;DHT22;37034;47.886;-3.904;2023-08-06T10:47:42;22.90;87.50
51007;DHT22;37034;47.886;-3.904;2023-08-06T10:50:11;23.10;87.60
51007;DHT22;37034;47.886;-3.904;2023-08-06T10:52:37;23.10;86.60
51007;DHT22;37034;47.886;-3.904;2023-08-06T10:55:03;23.30;87.60
51007;DHT22;37034;47.886;-3.904;2023-08-06T10:57:29;23.10;86.40
51007;DHT22;37034;47.886;-3.904;2023-08-06T10:59:54;23.00;86.30
51007;DHT22;37034;47.886;-3.904;2023-08-06T11:02:20;22.60;85.50
51007;DHT22;37034;47.886;-3.904;2023-08-06T11:04:46;22.60;87.40
51007;DHT22;37034;47.886;-3.904;2023-08-06T11:07:13;22.80;87.90
51007;DHT22;37034;47.886;-3.904;2023-08-06T11:09:39;23.20;87.80
51007;DHT22;37034;47.886;-3.904;2023-08-06T11:12:18;23.50;85.90
51007;DHT22;37034;47.886;-3.904;2023-08-06T11:14:50;23.40;82.40
51007;DHT22;37034;47.886;-3.904;2023-08-06T11:17:15;23.20;85.00
51007;DHT22;37034;47.886;-3.904;2023-08-06T11:19:41;23.10;84.40
51007;DHT22;37034;47.886;-3.904;2023-08-06T11:22:07;23.30;84.80
51007;DHT22;37034;47.886;-3.904;2023-08-06T11:24:32;23.30;84.60
51007;DHT22;37034;47.886;-3.904;2023-08-06T11:26:58;23.50;87.00
51007;DHT22;37034;47.886;-3.904;2023-08-06T11:29:24;23.70;85.70
51007;DHT22;37034;47.886;-3.904;2023-08-06T11:31:49;23.80;85.00
51007;DHT22;37034;47.886;-3.904;2023-08-06T11:34:15;23.80;83.40
51007;DHT22;37034;47.886;-3.904;2023-08-06T11:36:42;23.60;83.40
51007;DHT22;37034;47.886;-3.904;2023-08-06T11:39:08;23.70;84.80
51007;DHT22;37034;47.886;-3.904;2023-08-06T11:41:36;23.90;84.10
51007;DHT22;37034;47.886;-3.904;2023-08-06T11:44:06;23.70;82.80
51007;DHT22;37034;47.886;-3.904;2023-08-06T11:46:54;23.70;84.20
51007;DHT22;37034;47.886;-3.904;2023-08-06T11:49:38;23.70;84.20
51007;DHT22;37034;47.886;-3.904;2023-08-06T11:52:27;24.00;83.30
51007;DHT22;37034;47.886;-3.904;2023-08-06T11:57:28;23.70;83.60
51007;DHT22;37034;47.886;-3.904;2023-08-06T11:59:54;23.50;82.40
51007;DHT22;37034;47.886;-3.904;2023-08-06T12:02:21;23.70;84.20
51007;DHT22;37034;47.886;-3.904;2023-08-06T12:04:59;23.70;82.80
51007;DHT22;37034;47.886;-3.904;2023-08-06T12:07:29;23.70;82.40
51007;DHT22;37034;47.886;-3.904;2023-08-06T12:09:55;23.90;81.80
51007;DHT22;37034;47.886;-3.904;2023-08-06T12:12:21;23.90;82.10
51007;DHT22;37034;47.886;-3.904;2023-08-06T12:20:05;23.40;82.90
51007;DHT22;37034;47.886;-3.904;2023-08-06T12:22:32;23.70;81.70
51007;DHT22;37034;47.886;-3.904;2023-08-06T12:25:02;23.70;82.40
51007;DHT22;37034;47.886;-3.904;2023-08-06T12:27:29;23.90;81.60
51007;DHT22;37034;47.886;-3.904;2023-08-06T12:29:54;24.10;81.80
51007;DHT22;37034;47.886;-3.904;2023-08-06T12:32:20;23.90;81.60
51007;DHT22;37034;47.886;-3.904;2023-08-06T12:34:47;23.90;81.40
51007;DHT22;37034;47.886;-3.904;2023-08-06T12:37:13;24.10;82.20
51007;DHT22;37034;47.886;-3.904;2023-08-06T12:39:38;24.20;82.00
51007;DHT22;37034;47.886;-3.904;2023-08-06T12:42:05;24.50;81.40
51007;DHT22;37034;47.886;-3.904;2023-08-06T12:44:31;24.60;81.30
51007;DHT22;37034;47.886;-3.904;2023-08-06T12:46:57;24.50;79.10
51007;DHT22;37034;47.886;-3.904;2023-08-06T12:49:24;24.50;79.20
51007;DHT22;37034;47.886;-3.904;2023-08-06T12:51:52;24.30;80.80
51007;DHT22;37034;47.886;-3.904;2023-08-06T12:54:19;24.40;80.90
51007;DHT22;37034;47.886;-3.904;2023-08-06T12:56:45;24.60;80.40
51007;DHT22;37034;47.886;-3.904;2023-08-06T12:59:14;24.50;79.40
51007;DHT22;37034;47.886;-3.904;2023-08-06T13:01:40;24.30;80.40
51007;DHT22;37034;47.886;-3.904;2023-08-06T13:04:06;24.60;80.80
51007;DHT22;37034;47.886;-3.904;2023-08-06T13:06:31;24.70;81.00
51007;DHT22;37034;47.886;-3.904;2023-08-06T13:09:06;24.70;80.50
51007;DHT22;37034;47.886;-3.904;2023-08-06T13:11:32;24.90;80.90
51007;DHT22;37034;47.886;-3.904;2023-08-06T13:14:04;25.30;80.60
51007;DHT22;37034;47.886;-3.904;2023-08-06T13:16:30;25.20;77.30
51007;DHT22;37034;47.886;-3.904;2023-08-06T13:18:56;25.20;79.60
51007;DHT22;37034;47.886;-3.904;2023-08-06T13:21:22;25.50;79.70
51007;DHT22;37034;47.886;-3.904;2023-08-06T13:23:47;25.30;77.50
51007;DHT22;37034;47.886;-3.904;2023-08-06T13:26:13;25.30;79.00
51007;DHT22;37034;47.886;-3.904;2023-08-06T13:28:41;25.20;77.30
51007;DHT22;37034;47.886;-3.904;2023-08-06T13:31:07;25.20;79.00
51007;DHT22;37034;47.886;-3.904;2023-08-06T13:33:32;25.30;79.10
51007;DHT22;37034;47.886;-3.904;2023-08-06T13:35:58;25.40;78.70
51007;DHT22;37034;47.886;-3.904;2023-08-06T13:38:24;25.30;77.50
51007;DHT22;37034;47.886;-3.904;2023-08-06T13:40:49;25.30;78.10
51007;DHT22;37034;47.886;-3.904;2023-08-06T13:43:15;25.40;78.10
51007;DHT22;37034;47.886;-3.904;2023-08-06T13:45:42;25.50;77.60
51007;DHT22;37034;47.886;-3.904;2023-08-06T13:48:08;25.40;78.30
51007;DHT22;37034;47.886;-3.904;2023-08-06T13:50:36;25.40;77.90
51007;DHT22;37034;47.886;-3.904;2023-08-06T13:53:02;25.10;76.70
51007;DHT22;37034;47.886;-3.904;2023-08-06T13:55:27;25.00;77.10
51007;DHT22;37034;47.886;-3.904;2023-08-06T13:57:53;25.10;76.80
51007;DHT22;37034;47.886;-3.904;2023-08-06T14:00:19;25.00;76.30
51007;DHT22;37034;47.886;-3.904;2023-08-06T14:02:45;24.90;77.10
51007;DHT22;37034;47.886;-3.904;2023-08-06T14:05:11;25.00;77.30
51007;DHT22;37034;47.886;-3.904;2023-08-06T14:07:36;24.70;76.50
51007;DHT22;37034;47.886;-3.904;2023-08-06T14:10:02;24.60;76.50
51007;DHT22;37034;47.886;-3.904;2023-08-06T14:12:28;24.60;77.40
51007;DHT22;37034;47.886;-3.904;2023-08-06T14:14:54;24.40;77.30
51007;DHT22;37034;47.886;-3.904;2023-08-06T14:17:19;24.20;76.90
51007;DHT22;37034;47.886;-3.904;2023-08-06T14:19:45;24.10;77.50
51007;DHT22;37034;47.886;-3.904;2023-08-06T14:22:10;24.30;78.20
51007;DHT22;37034;47.886;-3.904;2023-08-06T14:24:36;24.60;77.50
51007;DHT22;37034;47.886;-3.904;2023-08-06T14:27:02;24.80;77.30
51007;DHT22;37034;47.886;-3.904;2023-08-06T14:29:29;24.60;76.10
51007;DHT22;37034;47.886;-3.904;2023-08-06T14:31:55;24.40;77.60
51007;DHT22;37034;47.886;-3.904;2023-08-06T14:34:20;24.50;77.60
51007;DHT22;37034;47.886;-3.904;2023-08-06T14:36:46;24.20;76.60
51007;DHT22;37034;47.886;-3.904;2023-08-06T14:39:12;24.30;76.90
51007;DHT22;37034;47.886;-3.904;2023-08-06T14:41:37;24.50;77.30
51007;DHT22;37034;47.886;-3.904;2023-08-06T14:44:03;24.50;77.00
51007;DHT22;37034;47.886;-3.904;2023-08-06T14:46:29;24.70;76.40
51007;DHT22;37034;47.886;-3.904;2023-08-06T14:48:54;24.90;77.10
51007;DHT22;37034;47.886;-3.904;2023-08-06T14:51:20;24.90;76.50
51007;DHT22;37034;47.886;-3.904;2023-08-06T14:53:46;24.80;76.80
51007;DHT22;37034;47.886;-3.904;2023-08-06T14:56:12;24.90;77.30
51007;DHT22;37034;47.886;-3.904;2023-08-06T14:58:37;25.00;77.30
51007;DHT22;37034;47.886;-3.904;2023-08-06T15:01:03;25.00;76.10
51007;DHT22;37034;47.886;-3.904;2023-08-06T15:03:28;25.00;75.50
51007;DHT22;37034;47.886;-3.904;2023-08-06T15:05:56;24.40;74.30
51007;DHT22;37034;47.886;-3.904;2023-08-06T15:08:22;24.00;76.40
51007;DHT22;37034;47.886;-3.904;2023-08-06T15:10:51;24.00;76.30
51007;DHT22;37034;47.886;-3.904;2023-08-06T15:13:18;24.10;75.80
51007;DHT22;37034;47.886;-3.904;2023-08-06T15:15:43;24.10;77.50
51007;DHT22;37034;47.886;-3.904;2023-08-06T15:18:10;24.40;77.50
51007;DHT22;37034;47.886;-3.904;2023-08-06T15:20:36;24.50;76.20
51007;DHT22;37034;47.886;-3.904;2023-08-06T15:23:02;24.30;76.70
51007;DHT22;37034;47.886;-3.904;2023-08-06T15:25:27;24.10;76.30
51007;DHT22;37034;47.886;-3.904;2023-08-06T15:27:53;24.10;77.50